sensor_id;sensor_type;location;lat;lon;timestamp;pressure;altitude;pressure_sealevel;temperature;humidity
53758;BME280;39674;59.860;30.672;2023-01-26T07:09:10;100933.78;;;1.11;100.00
53758;BME280;39674;59.860;30.672;2023-01-26T07:12:35;100930.34;;;1.09;100.00
53758;BME280;39674;59.860;30.672;2023-01-26T07:15:58;100937.28;;;1.10;100.00
53758;BME280;39674;59.860;30.672;2023-01-26T07:18:29;100929.50;;;1.06;100.00
53758;BME280;39674;59.860;30.672;2023-01-26T07:21:17;100933.88;;;1.02;100.00
53758;BME280;39674;59.860;30.672;2023-01-26T07:24:09;100927.78;;;1.05;100.00
53758;BME280;39674;59.860;30.672;2023-01-26T07:28:52;100930.34;;;1.06;100.00
53758;BME280;39674;59.860;30.672;2023-01-26T07:29:58;100934.72;;;1.03;100.00
53758;BME280;39674;59.860;30.672;2023-01-26T07:32:58;100939.06;;;1.02;100.00
53758;BME280;39674;59.860;30.672;2023-01-26T07:35:57;100939.06;;;1.02;100.00
53758;BME280;39674;59.860;30.672;2023-01-26T07:39:41;100939.06;;;1.02;100.00
53758;BME280;39674;59.860;30.672;2023-01-26T07:42:17;100945.16;;;1.00;100.00
53758;BME280;39674;59.860;30.672;2023-01-26T07:45:09;100938.25;;;0.97;100.00
53758;BME280;39674;59.860;30.672;2023-01-26T07:47:43;100942.59;;;0.95;100.00
53758;BME280;39674;59.860;30.672;2023-01-26T07:50:57;100950.38;;;0.98;100.00
53758;BME280;39674;59.860;30.672;2023-01-26T08:00:18;100953.00;;;0.95;100.00
53758;BME280;39674;59.860;30.672;2023-01-26T08:03:05;100951.25;;;0.97;100.00
53758;BME280;39674;59.860;30.672;2023-01-26T08:06:06;100945.22;;;0.92;100.00
53758;BME280;39674;59.860;30.672;2023-01-26T08:09:04;100944.38;;;0.90;100.00
53758;BME280;39674;59.860;30.672;2023-01-26T08:12:10;100945.28;;;0.87;100.00
53758;BME280;39674;59.860;30.672;2023-01-26T08:14:45;100942.63;;;0.90;100.00
53758;BME280;39674;59.860;30.672;2023-01-26T08:17:52;100946.97;;;0.88;100.00
53758;BME280;39674;59.860;30.672;2023-01-26T08:20:37;100951.31;;;0.88;100.00
53758;BME280;39674;59.860;30.672;2023-01-26T08:23:20;100953.97;;;0.85;100.00
53758;BME280;39674;59.860;30.672;2023-01-26T08:29:18;100960.03;;;0.84;100.00
53758;BME280;39674;59.860;30.672;2023-01-26T08:44:28;100962.63;;;0.82;100.00
53758;BME280;39674;59.860;30.672;2023-01-26T08:47:25;100966.09;;;0.84;100.00
53758;BME280;39674;59.860;30.672;2023-01-26T10:54:47;100931.53;;;0.71;100.00
53758;BME280;39674;59.860;30.672;2023-01-26T10:57:45;100932.41;;;0.67;100.00
53758;BME280;39674;59.860;30.672;2023-01-26T11:05:52;100927.22;;;0.66;100.00
53758;BME280;39674;59.860;30.672;2023-01-26T11:39:45;100940.19;;;0.67;100.00
53758;BME280;39674;59.860;30.672;2023-01-26T11:43:19;100933.28;;;0.64;100.00
53758;BME280;39674;59.860;30.672;2023-01-26T11:46:36;100922.00;;;0.67;100.00
53758;BME280;39674;59.860;30.672;2023-01-26T12:26:08;100934.13;;;0.71;100.00
53758;BME280;39674;59.860;30.672;2023-01-26T12:29:13;100937.56;;;0.73;100.00
53758;BME280;39674;59.860;30.672;2023-01-26T12:32:17;100941.00;;;0.75;100.00
53758;BME280;39674;59.860;30.672;2023-01-26T12:34:56;100944.47;;;0.77;100.00
53758;BME280;39674;59.860;30.672;2023-01-26T12:38:02;100939.28;;;0.77;100.00
53758;BME280;39674;59.860;30.672;2023-01-26T12:46:10;100939.22;;;0.80;100.00
53758;BME280;39674;59.860;30.672;2023-01-26T12:47:37;100948.78;;;0.77;100.00
53758;BME280;39674;59.860;30.672;2023-01-26T12:55:25;100945.31;;;0.78;100.00
53758;BME280;39674;59.860;30.672;2023-01-26T13:01:59;100945.38;;;0.72;100.00
53758;BME280;39674;59.860;30.672;2023-01-26T13:04:43;100949.69;;;0.74;100.00
53758;BME280;39674;59.860;30.672;2023-01-26T13:07:36;100937.59;;;0.70;100.00
53758;BME280;39674;59.860;30.672;2023-01-26T13:10:20;100945.38;;;0.70;100.00
53758;BME280;39674;59.860;30.672;2023-01-26T13:13:34;100940.19;;;0.69;100.00
53758;BME280;39674;59.860;30.672;2023-01-26T13:17:04;100954.91;;;0.70;100.00
53758;BME280;39674;59.860;30.672;2023-01-26T13:23:49;100952.34;;;0.67;100.00
53758;BME280;39674;59.860;30.672;2023-01-26T13:38:54;100961.84;;;0.69;100.00
53758;BME280;39674;59.860;30.672;2023-01-26T14:14:56;100956.69;;;0.63;100.00
53758;BME280;39674;59.860;30.672;2023-01-26T14:17:56;100955.84;;;0.61;100.00
53758;BME280;39674;59.860;30.672;2023-01-26T14:21:30;100953.25;;;0.61;100.00
53758;BME280;39674;59.860;30.672;2023-01-26T14:24:29;100954.13;;;0.58;100.00
53758;BME280;39674;59.860;30.672;2023-01-26T14:27:30;100967.13;;;0.57;100.00
53758;BME280;39674;59.860;30.672;2023-01-26T14:30:59;100967.13;;;0.57;100.00
53758;BME280;39674;59.860;30.672;2023-01-26T14:33:33;100968.88;;;0.55;100.00
53758;BME280;39674;59.860;30.672;2023-01-26T14:37:21;100967.13;;;0.54;100.00
53758;BME280;39674;59.860;30.672;2023-01-26T14:40:48;100972.34;;;0.54;100.00
53758;BME280;39674;59.860;30.672;2023-01-26T14:43:35;100976.69;;;0.53;100.00
53758;BME280;39674;59.860;30.672;2023-01-26T14:50:21;100983.59;;;0.56;100.00
53758;BME280;39674;59.860;30.672;2023-01-26T14:53:15;100993.16;;;0.55;100.00
53758;BME280;39674;59.860;30.672;2023-01-26T14:55:52;100991.41;;;0.53;100.00
53758;BME280;39674;59.860;30.672;2023-01-26T14:58:31;100997.44;;;0.56;100.00
53758;BME280;39674;59.860;30.672;2023-01-26T15:01:06;101008.72;;;0.57;100.00
53758;BME280;39674;59.860;30.672;2023-01-26T15:03:55;101002.66;;;0.56;100.00
53758;BME280;39674;59.860;30.672;2023-01-26T15:06:45;101003.50;;;0.58;100.00
53758;BME280;39674;59.860;30.672;2023-01-26T15:09:34;101003.53;;;0.55;100.00
53758;BME280;39674;59.860;30.672;2023-01-26T15:12:10;101009.59;;;0.56;100.00
53758;BME280;39674;59.860;30.672;2023-01-26T15:14:49;101007.84;;;0.59;100.00
53758;BME280;39674;59.860;30.672;2023-01-26T15:17:29;101007.00;;;0.56;100.00
53758;BME280;39674;59.860;30.672;2023-01-26T15:20:40;101002.69;;;0.53;100.00
53758;BME280;39674;59.860;30.672;2023-01-26T15:23:28;101005.25;;;0.55;100.00
53758;BME280;39674;59.860;30.672;2023-01-26T15:26:06;101009.56;;;0.59;100.00
53758;BME280;39674;59.860;30.672;2023-01-26T15:28:54;101005.22;;;0.61;100.00
53758;BME280;39674;59.860;30.672;2023-01-26T15:31:42;101007.81;;;0.61;100.00
53758;BME280;39674;59.860;30.672;2023-01-26T15:34:28;101009.53;;;0.63;100.00
53758;BME280;39674;59.860;30.672;2023-01-26T15:37:23;101007.78;;;0.67;100.00
53758;BME280;39674;59.860;30.672;2023-01-26T15:40:07;101012.16;;;0.65;100.00
53758;BME280;39674;59.860;30.672;2023-01-26T15:42:39;101006.94;;;0.67;100.00
53758;BME280;39674;59.860;30.672;2023-01-26T15:45:16;101004.31;;;0.70;100.00
53758;BME280;39674;59.860;30.672;2023-01-26T15:47:54;101002.56;;;0.73;100.00
53758;BME280;39674;59.860;30.672;2023-01-26T15:50:32;100994.75;;;0.76;100.00
53758;BME280;39674;59.860;30.672;2023-01-26T15:53:01;101005.16;;;0.73;100.00
53758;BME280;39674;59.860;30.672;2023-01-26T15:55:50;100991.31;;;0.71;100.00
53758;BME280;39674;59.860;30.672;2023-01-26T15:58:49;101003.41;;;0.72;100.00
53758;BME280;39674;59.860;30.672;2023-01-26T16:01:30;100998.22;;;0.71;100.00
53758;BME280;39674;59.860;30.672;2023-01-26T16:04:27;100991.31;;;0.71;100.00
53758;BME280;39674;59.860;30.672;2023-01-26T16:07:13;100991.31;;;0.71;100.00
53758;BME280;39674;59.860;30.672;2023-01-26T16:09:47;100998.22;;;0.71;100.00
53758;BME280;39674;59.860;30.672;2023-01-26T16:12:32;101005.16;;;0.73;100.00
53758;BME280;39674;59.860;30.672;2023-01-26T16:15:01;101001.72;;;0.71;100.00
53758;BME280;39674;59.860;30.672;2023-01-26T16:17:56;101000.84;;;0.71;100.00
53758;BME280;39674;59.860;30.672;2023-01-26T16:20:34;101004.31;;;0.71;100.00
53758;BME280;39674;59.860;30.672;2023-01-26T16:23:16;101004.31;;;0.73;100.00
53758;BME280;39674;59.860;30.672;2023-01-26T16:26:10;101014.69;;;0.74;100.00
53758;BME280;39674;59.860;30.672;2023-01-26T16:28:57;101014.69;;;0.70;100.00
53758;BME280;39674;59.860;30.672;2023-01-26T16:31:27;101020.78;;;0.70;100.00
53758;BME280;39674;59.860;30.672;2023-01-26T16:33:59;101022.53;;;0.68;100.00
53758;BME280;39674;59.860;30.672;2023-01-26T16:36:32;101020.78;;;0.69;100.00
53758;BME280;39674;59.860;30.672;2023-01-26T16:39:03;101024.25;;;0.66;100.00
53758;BME280;39674;59.860;30.672;2023-01-26T16:41:39;101024.25;;;0.66;100.00
53758;BME280;39674;59.860;30.672;2023-01-26T16:44:12;101030.31;;;0.68;100.00
53758;BME280;39674;59.860;30.672;2023-01-26T16:46:47;101027.75;;;0.65;100.00
53758;BME280;39674;59.860;30.672;2023-01-26T16:49:20;101026.84;;;0.66;100.00
53758;BME280;39674;59.860;30.672;2023-01-26T16:51:49;101027.75;;;0.65;100.00
53758;BME280;39674;59.860;30.672;2023-01-26T16:54:18;101033.81;;;0.66;100.00
53758;BME280;39674;59.860;30.672;2023-01-26T16:57:00;101034.66;;;0.66;100.00
53758;BME280;39674;59.860;30.672;2023-01-26T16:59:32;101039.03;;;0.64;100.00
53758;BME280;39674;59.860;30.672;2023-01-26T17:02:18;101032.94;;;0.63;100.00
53758;BME280;39674;59.860;30.672;2023-01-26T17:04:54;101036.41;;;0.64;100.00
53758;BME280;39674;59.860;30.672;2023-01-26T17:07:23;101040.75;;;0.65;100.00
53758;BME280;39674;59.860;30.672;2023-01-26T17:10:01;101041.63;;;0.64;100.00
53758;BME280;39674;59.860;30.672;2023-01-26T17:12:44;101052.00;;;0.64;100.00
53758;BME280;39674;59.860;30.672;2023-01-26T17:15:14;101043.34;;;0.65;100.00
53758;BME280;39674;59.860;30.672;2023-01-26T17:17:53;101044.19;;;0.67;100.00
53758;BME280;39674;59.860;30.672;2023-01-26T17:20:27;101045.94;;;0.67;100.00
53758;BME280;39674;59.860;30.672;2023-01-26T17:23:13;101065.84;;;0.66;100.00
53758;BME280;39674;59.860;30.672;2023-01-26T17:38:11;101071.91;;;0.70;100.00
53758;BME280;39674;59.860;30.672;2023-01-26T17:41:03;101077.09;;;0.70;100.00
53758;BME280;39674;59.860;30.672;2023-01-26T17:43:34;101074.53;;;0.71;100.00
53758;BME280;39674;59.860;30.672;2023-01-26T17:46:10;101077.97;;;0.70;100.00
53758;BME280;39674;59.860;30.672;2023-01-26T17:48:39;101077.97;;;0.70;100.00
53758;BME280;39674;59.860;30.672;2023-01-26T17:51:52;101076.25;;;0.69;100.00
53758;BME280;39674;59.860;30.672;2023-01-26T17:54:23;101073.63;;;0.71;100.00
53758;BME280;39674;59.860;30.672;2023-01-26T17:56:55;101072.78;;;0.70;100.00
53758;BME280;39674;59.860;30.672;2023-01-26T17:59:26;101080.59;;;0.70;100.00
53758;BME280;39674;59.860;30.672;2023-01-26T18:02:10;101090.13;;;0.71;100.00
53758;BME280;39674;59.860;30.672;2023-01-26T18:04:48;101086.66;;;0.69;100.00
53758;BME280;39674;59.860;30.672;2023-01-26T18:07:17;101088.38;;;0.70;100.00
53758;BME280;39674;59.860;30.672;2023-01-26T18:12:34;101090.13;;;0.71;100.00
53758;BME280;39674;59.860;30.672;2023-01-26T18:15:05;101090.13;;;0.71;100.00
53758;BME280;39674;59.860;30.672;2023-01-26T18:17:39;101092.69;;;0.70;100.00
53758;BME280;39674;59.860;30.672;2023-01-26T18:20:20;101102.25;;;0.69;100.00
53758;BME280;39674;59.860;30.672;2023-01-26T18:22:57;101097.06;;;0.69;100.00
53758;BME280;39674;59.860;30.672;2023-01-26T18:25:35;101093.59;;;0.67;100.00
53758;BME280;39674;59.860;30.672;2023-01-26T18:28:13;101095.31;;;0.68;100.00
53758;BME280;39674;59.860;30.672;2023-01-26T18:30:51;101091.84;;;0.66;100.00
53758;BME280;39674;59.860;30.672;2023-01-26T18:33:21;101097.06;;;0.66;100.00
53758;BME280;39674;59.860;30.672;2023-01-26T18:36:01;101097.06;;;0.66;100.00
53758;BME280;39674;59.860;30.672;2023-01-26T18:38:40;101109.19;;;0.67;100.00
53758;BME280;39674;59.860;30.672;2023-01-26T18:41:21;101108.34;;;0.67;100.00
53758;BME280;39674;59.860;30.672;2023-01-26T18:44:25;101114.38;;;0.69;100.00
53758;BME280;39674;59.860;30.672;2023-01-26T18:47:11;101109.19;;;0.67;100.00
53758;BME280;39674;59.860;30.672;2023-01-26T18:49:54;101113.53;;;0.67;100.00
53758;BME280;39674;59.860;30.672;2023-01-26T18:52:26;101114.38;;;0.69;100.00
53758;BME280;39674;59.860;30.672;2023-01-26T18:55:35;101123.06;;;0.69;100.00
53758;BME280;39674;59.860;30.672;2023-01-26T18:58:16;101128.25;;;0.69;100.00
53758;BME280;39674;59.860;30.672;2023-01-26T19:01:27;101127.38;;;0.70;100.00
53758;BME280;39674;59.860;30.672;2023-01-26T19:04:27;101122.16;;;0.69;100.00
53758;BME280;39674;59.860;30.672;2023-01-26T19:06:57;101128.25;;;0.69;100.00
53758;BME280;39674;59.860;30.672;2023-01-26T19:09:31;101142.97;;;0.70;100.00
53758;BME280;39674;59.860;30.672;2023-01-26T19:12:12;101141.22;;;0.71;100.00
53758;BME280;39674;59.860;30.672;2023-01-26T19:14:53;101143.81;;;0.75;100.00
53758;BME280;39674;59.860;30.672;2023-01-26T19:17:35;101150.78;;;0.72;100.00
53758;BME280;39674;59.860;30.672;2023-01-26T19:20:06;101149.03;;;0.72;100.00
53758;BME280;39674;59.860;30.672;2023-01-26T19:22:37;101147.31;;;0.71;100.00
53758;BME280;39674;59.860;30.672;2023-01-26T19:25:06;101138.63;;;0.72;100.00
53758;BME280;39674;59.860;30.672;2023-01-26T19:30:22;101152.53;;;0.71;100.00
53758;BME280;39674;59.860;30.672;2023-01-26T19:33:19;101164.63;;;0.72;100.00
53758;BME280;39674;59.860;30.672;2023-01-26T19:36:00;101164.63;;;0.72;100.00
53758;BME280;39674;59.860;30.672;2023-01-26T19:38:32;101171.56;;;0.73;100.00
53758;BME280;39674;59.860;30.672;2023-01-26T19:41:18;101172.41;;;0.72;100.00
53758;BME280;39674;59.860;30.672;2023-01-26T19:43:57;101173.28;;;0.74;100.00
53758;BME280;39674;59.860;30.672;2023-01-26T19:46:29;101171.56;;;0.73;100.00
53758;BME280;39674;59.860;30.672;2023-01-26T19:49:01;101167.25;;;0.71;100.00
53758;BME280;39674;59.860;30.672;2023-01-26T19:51:35;101178.50;;;0.68;100.00
53758;BME280;39674;59.860;30.672;2023-01-26T19:54:29;101178.53;;;0.67;100.00
53758;BME280;39674;59.860;30.672;2023-01-26T19:57:08;101178.53;;;0.65;100.00
53758;BME280;39674;59.860;30.672;2023-01-26T19:59:50;101180.28;;;0.63;100.00
53758;BME280;39674;59.860;30.672;2023-01-26T20:02:32;101182.88;;;0.61;100.00
53758;BME280;39674;59.860;30.672;2023-01-26T20:05:07;101188.09;;;0.61;100.00
53758;BME280;39674;59.860;30.672;2023-01-26T20:07:39;101192.41;;;0.58;100.00
53758;BME280;39674;59.860;30.672;2023-01-26T20:10:13;101188.94;;;0.56;100.00
53758;BME280;39674;59.860;30.672;2023-01-26T20:13:02;101189.81;;;0.53;100.00
53758;BME280;39674;59.860;30.672;2023-01-26T20:15:50;101195.03;;;0.53;100.00
53758;BME280;39674;59.860;30.672;2023-01-26T20:18:22;101204.53;;;0.53;100.00
53758;BME280;39674;59.860;30.672;2023-01-26T20:21:04;101210.59;;;0.50;100.00
53758;BME280;39674;59.860;30.672;2023-01-26T20:23:40;101211.50;;;0.51;100.00
53758;BME280;39674;59.860;30.672;2023-01-26T20:26:12;101213.22;;;0.50;100.00
53758;BME280;39674;59.860;30.672;2023-01-26T20:28:50;101206.28;;;0.51;100.00
53758;BME280;39674;59.860;30.672;2023-01-26T20:31:22;101205.41;;;0.50;100.00
53758;BME280;39674;59.860;30.672;2023-01-26T20:33:53;101209.75;;;0.50;100.00
53758;BME280;39674;59.860;30.672;2023-01-26T20:36:26;101210.63;;;0.48;100.00
53758;BME280;39674;59.860;30.672;2023-01-26T20:39:06;101208.03;;;0.48;100.00
53758;BME280;39674;59.860;30.672;2023-01-26T20:41:38;101215.81;;;0.47;100.00
53758;BME280;39674;59.860;30.672;2023-01-26T20:44:10;101214.94;;;0.46;100.00
53758;BME280;39674;59.860;30.672;2023-01-26T20:46:49;101218.44;;;0.45;100.00
53758;BME280;39674;59.860;30.672;2023-01-26T20:49:22;101218.44;;;0.45;100.00
53758;BME280;39674;59.860;30.672;2023-01-26T20:54:44;101221.91;;;0.40;100.00
53758;BME280;39674;59.860;30.672;2023-01-26T20:57:19;101228.81;;;0.39;100.00
53758;BME280;39674;59.860;30.672;2023-01-26T20:59:50;101243.56;;;0.37;100.00
53758;BME280;39674;59.860;30.672;2023-01-26T21:02:34;101237.50;;;0.35;100.00
53758;BME280;39674;59.860;30.672;2023-01-26T21:05:35;101245.28;;;0.34;100.00
53758;BME280;39674;59.860;30.672;2023-01-26T21:08:15;101253.97;;;0.32;100.00
53758;BME280;39674;59.860;30.672;2023-01-26T21:10:53;101260.03;;;0.30;100.00
53758;BME280;39674;59.860;30.672;2023-01-26T21:13:22;101266.94;;;0.28;100.00
53758;BME280;39674;59.860;30.672;2023-01-26T21:15:54;101274.75;;;0.26;100.00
53758;BME280;39674;59.860;30.672;2023-01-26T21:18:25;101272.13;;;0.23;100.00
53758;BME280;39674;59.860;30.672;2023-01-26T21:20:54;101270.41;;;0.24;100.00
53758;BME280;39674;59.860;30.672;2023-01-26T21:23:24;101275.59;;;0.21;100.00
53758;BME280;39674;59.860;30.672;2023-01-26T21:25:57;101275.63;;;0.18;100.00
53758;BME280;39674;59.860;30.672;2023-01-26T21:28:27;101279.06;;;0.17;100.00
53758;BME280;39674;59.860;30.672;2023-01-26T21:30:59;101277.34;;;0.15;100.00
53758;BME280;39674;59.860;30.672;2023-01-26T21:33:38;101279.94;;;0.15;100.00
53758;BME280;39674;59.860;30.672;2023-01-26T21:36:13;101282.53;;;0.12;100.00
53758;BME280;39674;59.860;30.672;2023-01-26T21:38:45;101292.03;;;0.13;100.00
53758;BME280;39674;59.860;30.672;2023-01-26T21:44:23;101297.25;;;0.17;100.00
53758;BME280;39674;59.860;30.672;2023-01-26T21:46:53;101311.09;;;0.14;100.00
53758;BME280;39674;59.860;30.672;2023-01-26T21:49:23;101313.72;;;0.12;100.00
53758;BME280;39674;59.860;30.672;2023-01-26T21:51:52;101307.63;;;0.12;100.00
53758;BME280;39674;59.860;30.672;2023-01-26T21:54:46;101306.78;;;0.11;100.00
53758;BME280;39674;59.860;30.672;2023-01-26T21:57:19;101310.22;;;0.07;100.00
53758;BME280;39674;59.860;30.672;2023-01-26T22:00:17;101318.00;;;0.06;100.00
53758;BME280;39674;59.860;30.672;2023-01-26T22:02:51;101324.09;;;0.06;100.00
53758;BME280;39674;59.860;30.672;2023-01-26T22:05:26;101329.28;;;0.06;100.00
53758;BME280;39674;59.860;30.672;2023-01-26T22:08:06;101331.03;;;0.10;100.00
53758;BME280;39674;59.860;30.672;2023-01-26T22:10:36;101337.06;;;0.05;100.00
53758;BME280;39674;59.860;30.672;2023-01-26T22:13:15;101335.31;;;0.04;100.00
53758;BME280;39674;59.860;30.672;2023-01-26T22:15:53;101343.13;;;0.02;100.00
53758;BME280;39674;59.860;30.672;2023-01-26T22:18:28;101351.78;;;0.03;100.00
53758;BME280;39674;59.860;30.672;2023-01-26T22:20:56;101354.38;;;0.04;100.00
53758;BME280;39674;59.860;30.672;2023-01-26T22:23:31;101355.25;;;0.00;100.00
53758;BME280;39674;59.860;30.672;2023-01-26T22:26:08;101358.72;;;-0.01;100.00
53758;BME280;39674;59.860;30.672;2023-01-26T22:28:56;101356.97;;;-0.04;100.00
53758;BME280;39674;59.860;30.672;2023-01-26T22:31:36;101364.75;;;-0.04;100.00
53758;BME280;39674;59.860;30.672;2023-01-26T22:34:13;101365.63;;;-0.02;100.00
53758;BME280;39674;59.860;30.672;2023-01-26T22:36:44;101376.00;;;-0.03;100.00
53758;BME280;39674;59.860;30.672;2023-01-26T22:39:19;101375.13;;;-0.07;100.00
53758;BME280;39674;59.860;30.672;2023-01-26T22:42:07;101372.53;;;-0.05;100.00
53758;BME280;39674;59.860;30.672;2023-01-26T22:44:43;101379.47;;;-0.07;100.00
53758;BME280;39674;59.860;30.672;2023-01-26T22:47:46;101380.31;;;-0.07;100.00
53758;BME280;39674;59.860;30.672;2023-01-26T22:50:29;101391.56;;;-0.06;100.00
53758;BME280;39674;59.860;30.672;2023-01-26T22:53:03;101378.56;;;-0.06;100.00
53758;BME280;39674;59.860;30.672;2023-01-26T22:55:34;101394.16;;;-0.06;100.00
53758;BME280;39674;59.860;30.672;2023-01-26T22:58:14;101395.06;;;-0.07;100.00
53758;BME280;39674;59.860;30.672;2023-01-26T23:00:50;101396.75;;;-0.06;100.00
53758;BME280;39674;59.860;30.672;2023-01-26T23:03:28;101402.84;;;-0.07;100.00
53758;BME280;39674;59.860;30.672;2023-01-26T23:06:16;101407.16;;;-0.06;100.00
53758;BME280;39674;59.860;30.672;2023-01-26T23:08:48;101415.81;;;-0.07;100.00
53758;BME280;39674;59.860;30.672;2023-01-26T23:11:23;101414.06;;;-0.11;100.00
53758;BME280;39674;59.860;30.672;2023-01-26T23:13:55;101415.81;;;-0.12;100.00
53758;BME280;39674;59.860;30.672;2023-01-26T23:16:27;101419.25;;;-0.14;100.00
53758;BME280;39674;59.860;30.672;2023-01-26T23:19:05;101407.97;;;-0.15;100.00
53758;BME280;39674;59.860;30.672;2023-01-26T23:21:39;101411.47;;;-0.14;100.00
53758;BME280;39674;59.860;30.672;2023-01-26T23:24:12;101419.22;;;-0.18;100.00
53758;BME280;39674;59.860;30.672;2023-01-26T23:26:40;101428.75;;;-0.18;100.00
53758;BME280;39674;59.860;30.672;2023-01-26T23:29:26;101425.31;;;-0.15;100.00
53758;BME280;39674;59.860;30.672;2023-01-26T23:32:01;101432.19;;;-0.16;100.00
53758;BME280;39674;59.860;30.672;2023-01-26T23:34:36;101440.88;;;-0.15;100.00
53758;BME280;39674;59.860;30.672;2023-01-26T23:37:10;101448.66;;;-0.15;100.00
53758;BME280;39674;59.860;30.672;2023-01-26T23:39:44;101452.13;;;-0.17;100.00
53758;BME280;39674;59.860;30.672;2023-01-26T23:42:23;101459.06;;;-0.15;100.00
53758;BME280;39674;59.860;30.672;2023-01-26T23:44:55;101456.47;;;-0.17;100.00
53758;BME280;39674;59.860;30.672;2023-01-26T23:47:29;101463.38;;;-0.16;100.00
53758;BME280;39674;59.860;30.672;2023-01-26T23:50:07;101462.50;;;-0.17;100.00
53758;BME280;39674;59.860;30.672;2023-01-26T23:52:47;101460.75;;;-0.24;100.00
53758;BME280;39674;59.860;30.672;2023-01-26T23:55:19;101454.66;;;-0.26;100.00
53758;BME280;39674;59.860;30.672;2023-01-26T23:58:00;101454.66;;;-0.29;100.00
